sensor_id;sensor_type;location;lat;lon;timestamp;P1;durP1;ratioP1;P2;durP2;ratioP2
39032;SDS011;24794;51.982;5.878;2023-03-29T00:00:29;2.78;;;1.40;;
39032;SDS011;24794;51.982;5.878;2023-03-29T00:01:30;3.40;;;1.80;;
39032;SDS011;24794;51.982;5.878;2023-03-29T00:02:31;6.00;;;1.90;;
39032;SDS011;24794;51.982;5.878;2023-03-29T00:03:32;4.07;;;1.50;;
39032;SDS011;24794;51.982;5.878;2023-03-29T00:04:34;3.72;;;1.40;;
39032;SDS011;24794;51.982;5.878;2023-03-29T00:05:36;2.42;;;1.60;;
39032;SDS011;24794;51.982;5.878;2023-03-29T00:06:37;3.53;;;1.70;;
39032;SDS011;24794;51.982;5.878;2023-03-29T00:07:38;4.53;;;2.10;;
39032;SDS011;24794;51.982;5.878;2023-03-29T00:08:38;3.35;;;1.70;;
39032;SDS011;24794;51.982;5.878;2023-03-29T00:09:39;4.72;;;1.90;;
39032;SDS011;24794;51.982;5.878;2023-03-29T00:10:41;1.95;;;1.20;;
39032;SDS011;24794;51.982;5.878;2023-03-29T00:11:42;3.65;;;1.38;;
39032;SDS011;24794;51.982;5.878;2023-03-29T00:12:43;2.55;;;1.30;;
39032;SDS011;24794;51.982;5.878;2023-03-29T00:13:44;4.50;;;1.40;;
39032;SDS011;24794;51.982;5.878;2023-03-29T00:14:45;2.90;;;1.40;;
39032;SDS011;24794;51.982;5.878;2023-03-29T00:15:46;1.77;;;1.20;;
39032;SDS011;24794;51.982;5.878;2023-03-29T00:16:46;3.45;;;1.38;;
39032;SDS011;24794;51.982;5.878;2023-03-29T00:17:47;2.35;;;1.38;;
39032;SDS011;24794;51.982;5.878;2023-03-29T00:18:48;2.33;;;1.27;;
39032;SDS011;24794;51.982;5.878;2023-03-29T00:19:49;2.20;;;1.50;;
39032;SDS011;24794;51.982;5.878;2023-03-29T00:20:56;3.85;;;1.48;;
39032;SDS011;24794;51.982;5.878;2023-03-29T00:21:58;4.13;;;1.70;;
39032;SDS011;24794;51.982;5.878;2023-03-29T00:22:59;3.72;;;1.60;;
39032;SDS011;24794;51.982;5.878;2023-03-29T00:24:00;3.72;;;1.65;;
39032;SDS011;24794;51.982;5.878;2023-03-29T00:25:00;3.03;;;1.63;;
39032;SDS011;24794;51.982;5.878;2023-03-29T00:26:01;2.67;;;1.75;;
39032;SDS011;24794;51.982;5.878;2023-03-29T00:27:02;3.08;;;1.75;;
39032;SDS011;24794;51.982;5.878;2023-03-29T00:28:03;4.75;;;1.55;;
39032;SDS011;24794;51.982;5.878;2023-03-29T00:29:03;2.92;;;1.70;;
39032;SDS011;24794;51.982;5.878;2023-03-29T00:30:05;2.40;;;1.40;;
39032;SDS011;24794;51.982;5.878;2023-03-29T00:31:08;1.75;;;1.38;;
39032;SDS011;24794;51.982;5.878;2023-03-29T00:32:10;2.13;;;1.35;;
39032;SDS011;24794;51.982;5.878;2023-03-29T00:33:11;3.97;;;1.83;;
39032;SDS011;24794;51.982;5.878;2023-03-29T00:34:13;3.78;;;1.70;;
39032;SDS011;24794;51.982;5.878;2023-03-29T00:35:14;3.67;;;1.75;;
39032;SDS011;24794;51.982;5.878;2023-03-29T00:36:15;2.75;;;1.60;;
39032;SDS011;24794;51.982;5.878;2023-03-29T00:37:16;2.78;;;1.55;;
39032;SDS011;24794;51.982;5.878;2023-03-29T00:38:17;4.60;;;1.90;;
39032;SDS011;24794;51.982;5.878;2023-03-29T00:39:18;3.60;;;1.73;;
39032;SDS011;24794;51.982;5.878;2023-03-29T00:40:19;3.45;;;1.80;;
39032;SDS011;24794;51.982;5.878;2023-03-29T00:41:20;2.13;;;1.50;;
39032;SDS011;24794;51.982;5.878;2023-03-29T00:42:20;2.33;;;1.50;;
39032;SDS011;24794;51.982;5.878;2023-03-29T00:43:21;2.53;;;1.30;;
39032;SDS011;24794;51.982;5.878;2023-03-29T00:45:56;4.70;;;1.55;;
39032;SDS011;24794;51.982;5.878;2023-03-29T00:46:56;3.65;;;1.75;;
39032;SDS011;24794;51.982;5.878;2023-03-29T00:47:57;2.28;;;1.40;;
39032;SDS011;24794;51.982;5.878;2023-03-29T00:49:03;2.90;;;1.30;;
39032;SDS011;24794;51.982;5.878;2023-03-29T00:50:12;2.88;;;1.50;;
39032;SDS011;24794;51.982;5.878;2023-03-29T00:51:25;2.17;;;1.45;;
39032;SDS011;24794;51.982;5.878;2023-03-29T00:52:29;3.65;;;1.40;;
39032;SDS011;24794;51.982;5.878;2023-03-29T00:54:34;4.80;;;1.52;;
39032;SDS011;24794;51.982;5.878;2023-03-29T00:55:42;2.50;;;1.30;;
39032;SDS011;24794;51.982;5.878;2023-03-29T00:56:47;3.58;;;2.08;;
39032;SDS011;24794;51.982;5.878;2023-03-29T00:57:50;3.05;;;1.48;;
39032;SDS011;24794;51.982;5.878;2023-03-29T00:58:56;1.42;;;1.13;;
39032;SDS011;24794;51.982;5.878;2023-03-29T01:00:01;2.05;;;1.30;;
39032;SDS011;24794;51.982;5.878;2023-03-29T01:01:05;2.90;;;1.55;;
39032;SDS011;24794;51.982;5.878;2023-03-29T01:02:09;3.35;;;1.25;;
39032;SDS011;24794;51.982;5.878;2023-03-29T01:03:11;3.50;;;1.52;;
39032;SDS011;24794;51.982;5.878;2023-03-29T01:05:44;2.50;;;1.60;;
39032;SDS011;24794;51.982;5.878;2023-03-29T01:06:48;2.10;;;1.55;;
39032;SDS011;24794;51.982;5.878;2023-03-29T01:07:59;2.78;;;1.42;;
39032;SDS011;24794;51.982;5.878;2023-03-29T01:09:03;6.57;;;1.90;;
39032;SDS011;24794;51.982;5.878;2023-03-29T01:10:09;4.15;;;1.85;;
39032;SDS011;24794;51.982;5.878;2023-03-29T01:11:17;2.17;;;1.52;;
39032;SDS011;24794;51.982;5.878;2023-03-29T01:12:25;3.30;;;1.60;;
39032;SDS011;24794;51.982;5.878;2023-03-29T01:13:35;6.90;;;1.98;;
39032;SDS011;24794;51.982;5.878;2023-03-29T01:14:44;3.42;;;1.92;;
39032;SDS011;24794;51.982;5.878;2023-03-29T01:15:55;7.15;;;1.90;;
39032;SDS011;24794;51.982;5.878;2023-03-29T01:16:58;3.05;;;1.67;;
39032;SDS011;24794;51.982;5.878;2023-03-29T01:17:58;2.97;;;1.92;;
39032;SDS011;24794;51.982;5.878;2023-03-29T01:19:00;3.25;;;1.88;;
39032;SDS011;24794;51.982;5.878;2023-03-29T01:20:03;4.50;;;1.83;;
39032;SDS011;24794;51.982;5.878;2023-03-29T01:22:22;4.05;;;1.90;;
39032;SDS011;24794;51.982;5.878;2023-03-29T01:23:41;3.17;;;1.83;;
39032;SDS011;24794;51.982;5.878;2023-03-29T01:24:47;4.18;;;1.60;;
39032;SDS011;24794;51.982;5.878;2023-03-29T01:26:02;5.07;;;1.95;;
39032;SDS011;24794;51.982;5.878;2023-03-29T01:28:35;4.60;;;1.98;;
39032;SDS011;24794;51.982;5.878;2023-03-29T01:29:59;4.78;;;2.47;;
39032;SDS011;24794;51.982;5.878;2023-03-29T01:31:08;3.65;;;1.88;;
39032;SDS011;24794;51.982;5.878;2023-03-29T01:33:17;3.45;;;1.80;;
39032;SDS011;24794;51.982;5.878;2023-03-29T01:34:33;3.70;;;1.70;;
39032;SDS011;24794;51.982;5.878;2023-03-29T01:35:41;4.25;;;1.90;;
39032;SDS011;24794;51.982;5.878;2023-03-29T01:36:49;4.18;;;1.83;;
39032;SDS011;24794;51.982;5.878;2023-03-29T01:37:58;3.45;;;2.00;;
39032;SDS011;24794;51.982;5.878;2023-03-29T01:39:06;6.50;;;1.80;;
39032;SDS011;24794;51.982;5.878;2023-03-29T01:40:07;3.80;;;2.10;;
39032;SDS011;24794;51.982;5.878;2023-03-29T01:41:08;3.92;;;2.08;;
39032;SDS011;24794;51.982;5.878;2023-03-29T01:42:24;5.20;;;2.28;;
39032;SDS011;24794;51.982;5.878;2023-03-29T01:43:49;3.03;;;1.80;;
39032;SDS011;24794;51.982;5.878;2023-03-29T01:45:15;5.45;;;2.00;;
39032;SDS011;24794;51.982;5.878;2023-03-29T01:46:25;4.40;;;2.45;;
39032;SDS011;24794;51.982;5.878;2023-03-29T01:50:43;3.75;;;2.78;;
39032;SDS011;24794;51.982;5.878;2023-03-29T01:52:04;4.85;;;2.95;;
39032;SDS011;24794;51.982;5.878;2023-03-29T01:53:14;5.35;;;2.75;;
39032;SDS011;24794;51.982;5.878;2023-03-29T01:54:29;4.53;;;2.50;;
39032;SDS011;24794;51.982;5.878;2023-03-29T01:55:34;7.38;;;2.72;;
39032;SDS011;24794;51.982;5.878;2023-03-29T01:56:39;5.97;;;2.40;;
39032;SDS011;24794;51.982;5.878;2023-03-29T01:57:43;5.30;;;2.30;;
39032;SDS011;24794;51.982;5.878;2023-03-29T01:58:47;4.57;;;2.00;;
39032;SDS011;24794;51.982;5.878;2023-03-29T01:59:52;5.70;;;2.25;;
39032;SDS011;24794;51.982;5.878;2023-03-29T02:00:54;4.45;;;2.08;;
39032;SDS011;24794;51.982;5.878;2023-03-29T02:01:57;4.30;;;2.00;;
39032;SDS011;24794;51.982;5.878;2023-03-29T02:03:05;6.60;;;2.60;;
39032;SDS011;24794;51.982;5.878;2023-03-29T02:04:09;4.55;;;2.25;;
39032;SDS011;24794;51.982;5.878;2023-03-29T02:05:12;4.60;;;2.05;;
39032;SDS011;24794;51.982;5.878;2023-03-29T02:06:18;3.90;;;2.58;;
39032;SDS011;24794;51.982;5.878;2023-03-29T02:07:24;6.65;;;2.40;;
39032;SDS011;24794;51.982;5.878;2023-03-29T02:08:29;6.50;;;2.40;;
39032;SDS011;24794;51.982;5.878;2023-03-29T02:09:30;4.97;;;2.33;;
39032;SDS011;24794;51.982;5.878;2023-03-29T02:10:32;4.70;;;2.58;;
39032;SDS011;24794;51.982;5.878;2023-03-29T02:11:34;4.63;;;2.58;;
39032;SDS011;24794;51.982;5.878;2023-03-29T02:12:35;4.57;;;2.75;;
39032;SDS011;24794;51.982;5.878;2023-03-29T02:13:37;5.47;;;2.40;;
39032;SDS011;24794;51.982;5.878;2023-03-29T02:14:37;6.65;;;2.53;;
39032;SDS011;24794;51.982;5.878;2023-03-29T02:15:38;3.80;;;2.20;;
39032;SDS011;24794;51.982;5.878;2023-03-29T02:16:39;4.70;;;2.22;;
39032;SDS011;24794;51.982;5.878;2023-03-29T02:17:39;5.35;;;1.95;;
39032;SDS011;24794;51.982;5.878;2023-03-29T02:18:43;8.18;;;2.15;;
39032;SDS011;24794;51.982;5.878;2023-03-29T02:19:48;5.25;;;2.33;;
39032;SDS011;24794;51.982;5.878;2023-03-29T02:20:54;4.28;;;2.63;;
39032;SDS011;24794;51.982;5.878;2023-03-29T02:22:03;3.80;;;2.40;;
39032;SDS011;24794;51.982;5.878;2023-03-29T02:23:15;9.25;;;2.72;;
39032;SDS011;24794;51.982;5.878;2023-03-29T02:24:22;4.70;;;2.20;;
39032;SDS011;24794;51.982;5.878;2023-03-29T02:25:24;3.72;;;2.58;;
39032;SDS011;24794;51.982;5.878;2023-03-29T02:26:24;5.47;;;2.53;;
39032;SDS011;24794;51.982;5.878;2023-03-29T02:27:26;3.17;;;2.20;;
39032;SDS011;24794;51.982;5.878;2023-03-29T02:28:28;6.95;;;2.20;;
39032;SDS011;24794;51.982;5.878;2023-03-29T02:29:30;3.80;;;2.13;;
39032;SDS011;24794;51.982;5.878;2023-03-29T02:31:04;3.20;;;2.25;;
39032;SDS011;24794;51.982;5.878;2023-03-29T02:32:07;5.40;;;3.20;;
39032;SDS011;24794;51.982;5.878;2023-03-29T02:33:19;6.40;;;2.65;;
39032;SDS011;24794;51.982;5.878;2023-03-29T02:34:28;4.90;;;2.58;;
39032;SDS011;24794;51.982;5.878;2023-03-29T02:35:38;6.60;;;2.50;;
39032;SDS011;24794;51.982;5.878;2023-03-29T02:36:46;5.35;;;2.78;;
39032;SDS011;24794;51.982;5.878;2023-03-29T02:37:51;3.80;;;2.35;;
39032;SDS011;24794;51.982;5.878;2023-03-29T02:38:55;4.85;;;2.45;;
39032;SDS011;24794;51.982;5.878;2023-03-29T02:39:59;5.03;;;2.45;;
39032;SDS011;24794;51.982;5.878;2023-03-29T02:41:01;5.85;;;2.58;;
39032;SDS011;24794;51.982;5.878;2023-03-29T02:42:02;4.10;;;2.38;;
39032;SDS011;24794;51.982;5.878;2023-03-29T02:43:05;6.13;;;2.80;;
39032;SDS011;24794;51.982;5.878;2023-03-29T02:44:09;5.95;;;2.53;;
39032;SDS011;24794;51.982;5.878;2023-03-29T02:45:13;5.72;;;2.70;;
39032;SDS011;24794;51.982;5.878;2023-03-29T02:46:16;6.45;;;2.65;;
39032;SDS011;24794;51.982;5.878;2023-03-29T02:47:19;5.32;;;2.45;;
39032;SDS011;24794;51.982;5.878;2023-03-29T02:48:24;3.90;;;2.20;;
39032;SDS011;24794;51.982;5.878;2023-03-29T02:49:27;4.32;;;2.30;;
39032;SDS011;24794;51.982;5.878;2023-03-29T02:50:28;6.15;;;2.88;;
39032;SDS011;24794;51.982;5.878;2023-03-29T02:51:35;6.85;;;2.75;;
39032;SDS011;24794;51.982;5.878;2023-03-29T02:52:38;4.45;;;2.40;;
39032;SDS011;24794;51.982;5.878;2023-03-29T02:53:46;7.63;;;2.90;;
39032;SDS011;24794;51.982;5.878;2023-03-29T02:54:51;5.95;;;2.70;;
39032;SDS011;24794;51.982;5.878;2023-03-29T02:55:54;4.70;;;2.30;;
39032;SDS011;24794;51.982;5.878;2023-03-29T02:56:56;7.05;;;2.55;;
39032;SDS011;24794;51.982;5.878;2023-03-29T02:57:58;5.55;;;2.53;;
39032;SDS011;24794;51.982;5.878;2023-03-29T02:59:02;5.00;;;2.83;;
39032;SDS011;24794;51.982;5.878;2023-03-29T03:00:02;5.53;;;2.70;;
39032;SDS011;24794;51.982;5.878;2023-03-29T03:01:08;2.72;;;2.00;;
39032;SDS011;24794;51.982;5.878;2023-03-29T03:02:09;6.03;;;2.22;;
39032;SDS011;24794;51.982;5.878;2023-03-29T03:03:13;3.75;;;2.75;;
39032;SDS011;24794;51.982;5.878;2023-03-29T03:04:14;4.32;;;2.80;;
39032;SDS011;24794;51.982;5.878;2023-03-29T03:05:16;8.07;;;3.45;;
39032;SDS011;24794;51.982;5.878;2023-03-29T03:06:17;4.75;;;2.75;;
39032;SDS011;24794;51.982;5.878;2023-03-29T03:07:17;3.42;;;2.08;;
39032;SDS011;24794;51.982;5.878;2023-03-29T03:08:19;5.70;;;2.45;;
39032;SDS011;24794;51.982;5.878;2023-03-29T03:09:19;4.03;;;2.00;;
39032;SDS011;24794;51.982;5.878;2023-03-29T03:10:20;4.13;;;2.35;;
39032;SDS011;24794;51.982;5.878;2023-03-29T03:11:20;4.00;;;2.00;;
39032;SDS011;24794;51.982;5.878;2023-03-29T03:12:22;5.22;;;2.00;;
39032;SDS011;24794;51.982;5.878;2023-03-29T03:13:23;5.00;;;2.50;;
39032;SDS011;24794;51.982;5.878;2023-03-29T03:14:24;4.05;;;2.53;;
39032;SDS011;24794;51.982;5.878;2023-03-29T03:15:24;6.38;;;2.78;;
39032;SDS011;24794;51.982;5.878;2023-03-29T03:16:25;4.25;;;2.10;;
39032;SDS011;24794;51.982;5.878;2023-03-29T03:17:26;6.32;;;2.30;;
39032;SDS011;24794;51.982;5.878;2023-03-29T03:18:27;2.72;;;2.05;;
39032;SDS011;24794;51.982;5.878;2023-03-29T03:19:28;3.63;;;2.22;;
39032;SDS011;24794;51.982;5.878;2023-03-29T03:20:28;3.63;;;2.00;;
39032;SDS011;24794;51.982;5.878;2023-03-29T03:21:30;3.55;;;1.92;;
39032;SDS011;24794;51.982;5.878;2023-03-29T03:22:30;4.70;;;2.35;;
39032;SDS011;24794;51.982;5.878;2023-03-29T03:23:31;2.63;;;2.00;;
39032;SDS011;24794;51.982;5.878;2023-03-29T03:24:31;3.17;;;2.08;;
39032;SDS011;24794;51.982;5.878;2023-03-29T03:25:32;3.70;;;2.63;;
39032;SDS011;24794;51.982;5.878;2023-03-29T03:26:34;4.68;;;2.80;;
39032;SDS011;24794;51.982;5.878;2023-03-29T03:27:37;3.42;;;2.35;;
39032;SDS011;24794;51.982;5.878;2023-03-29T03:28:38;4.28;;;2.40;;
39032;SDS011;24794;51.982;5.878;2023-03-29T03:29:39;4.32;;;2.10;;
39032;SDS011;24794;51.982;5.878;2023-03-29T03:30:40;3.25;;;1.92;;
39032;SDS011;24794;51.982;5.878;2023-03-29T03:31:41;2.92;;;1.88;;
39032;SDS011;24794;51.982;5.878;2023-03-29T03:32:41;3.83;;;2.05;;
39032;SDS011;24794;51.982;5.878;2023-03-29T03:33:43;3.63;;;2.03;;
39032;SDS011;24794;51.982;5.878;2023-03-29T03:34:45;3.05;;;2.00;;
39032;SDS011;24794;51.982;5.878;2023-03-29T03:35:45;2.33;;;1.88;;
39032;SDS011;24794;51.982;5.878;2023-03-29T03:36:46;3.65;;;2.22;;
39032;SDS011;24794;51.982;5.878;2023-03-29T03:37:47;5.15;;;2.30;;
39032;SDS011;24794;51.982;5.878;2023-03-29T03:38:47;4.18;;;2.55;;
39032;SDS011;24794;51.982;5.878;2023-03-29T03:39:48;4.45;;;2.55;;
39032;SDS011;24794;51.982;5.878;2023-03-29T03:40:51;5.53;;;2.40;;
39032;SDS011;24794;51.982;5.878;2023-03-29T03:41:53;3.35;;;2.53;;
39032;SDS011;24794;51.982;5.878;2023-03-29T03:42:53;4.43;;;2.10;;
39032;SDS011;24794;51.982;5.878;2023-03-29T03:43:54;3.95;;;2.05;;
39032;SDS011;24794;51.982;5.878;2023-03-29T03:44:55;3.80;;;2.00;;
39032;SDS011;24794;51.982;5.878;2023-03-29T03:45:56;4.38;;;2.40;;
39032;SDS011;24794;51.982;5.878;2023-03-29T03:46:57;4.60;;;2.10;;
39032;SDS011;24794;51.982;5.878;2023-03-29T03:47:57;4.15;;;2.50;;
39032;SDS011;24794;51.982;5.878;2023-03-29T03:48:58;4.47;;;2.08;;
39032;SDS011;24794;51.982;5.878;2023-03-29T03:49:59;4.40;;;2.30;;
39032;SDS011;24794;51.982;5.878;2023-03-29T03:50:59;3.28;;;2.13;;
39032;SDS011;24794;51.982;5.878;2023-03-29T03:52:00;3.00;;;1.85;;
39032;SDS011;24794;51.982;5.878;2023-03-29T03:53:00;2.83;;;2.05;;
39032;SDS011;24794;51.982;5.878;2023-03-29T03:54:01;4.07;;;2.28;;
39032;SDS011;24794;51.982;5.878;2023-03-29T03:55:01;3.47;;;2.00;;
39032;SDS011;24794;51.982;5.878;2023-03-29T03:56:02;3.90;;;2.38;;
39032;SDS011;24794;51.982;5.878;2023-03-29T03:57:07;4.70;;;2.10;;
39032;SDS011;24794;51.982;5.878;2023-03-29T03:58:08;4.20;;;2.30;;
39032;SDS011;24794;51.982;5.878;2023-03-29T03:59:08;4.05;;;2.22;;
39032;SDS011;24794;51.982;5.878;2023-03-29T04:00:10;2.67;;;1.85;;
39032;SDS011;24794;51.982;5.878;2023-03-29T04:01:20;3.83;;;2.10;;
39032;SDS011;24794;51.982;5.878;2023-03-29T04:02:20;3.80;;;2.10;;
39032;SDS011;24794;51.982;5.878;2023-03-29T04:03:21;3.38;;;1.85;;
39032;SDS011;24794;51.982;5.878;2023-03-29T04:04:22;3.28;;;1.98;;
39032;SDS011;24794;51.982;5.878;2023-03-29T04:05:23;3.00;;;2.00;;
39032;SDS011;24794;51.982;5.878;2023-03-29T04:06:24;5.57;;;2.20;;
39032;SDS011;24794;51.982;5.878;2023-03-29T04:07:24;3.00;;;2.10;;
39032;SDS011;24794;51.982;5.878;2023-03-29T04:08:26;4.13;;;2.00;;
39032;SDS011;24794;51.982;5.878;2023-03-29T04:09:28;3.35;;;2.10;;
39032;SDS011;24794;51.982;5.878;2023-03-29T04:10:30;3.90;;;2.10;;
39032;SDS011;24794;51.982;5.878;2023-03-29T04:11:30;2.65;;;1.90;;
39032;SDS011;24794;51.982;5.878;2023-03-29T04:12:31;4.35;;;2.40;;
39032;SDS011;24794;51.982;5.878;2023-03-29T04:13:31;3.95;;;2.13;;
39032;SDS011;24794;51.982;5.878;2023-03-29T04:14:32;5.70;;;2.03;;
39032;SDS011;24794;51.982;5.878;2023-03-29T04:15:33;4.63;;;2.08;;
39032;SDS011;24794;51.982;5.878;2023-03-29T04:16:37;2.92;;;1.90;;
39032;SDS011;24794;51.982;5.878;2023-03-29T04:17:38;2.45;;;1.80;;
39032;SDS011;24794;51.982;5.878;2023-03-29T04:18:39;3.13;;;2.00;;
39032;SDS011;24794;51.982;5.878;2023-03-29T04:19:39;3.70;;;2.20;;
39032;SDS011;24794;51.982;5.878;2023-03-29T04:20:40;3.28;;;1.83;;
39032;SDS011;24794;51.982;5.878;2023-03-29T04:21:40;3.53;;;2.17;;
39032;SDS011;24794;51.982;5.878;2023-03-29T04:22:41;2.85;;;1.60;;
39032;SDS011;24794;51.982;5.878;2023-03-29T04:23:42;3.30;;;2.13;;
39032;SDS011;24794;51.982;5.878;2023-03-29T04:24:45;2.95;;;2.05;;
39032;SDS011;24794;51.982;5.878;2023-03-29T04:25:45;2.90;;;1.88;;
39032;SDS011;24794;51.982;5.878;2023-03-29T04:26:46;6.88;;;2.45;;
39032;SDS011;24794;51.982;5.878;2023-03-29T04:27:48;2.38;;;1.88;;
39032;SDS011;24794;51.982;5.878;2023-03-29T04:28:49;3.28;;;2.25;;
39032;SDS011;24794;51.982;5.878;2023-03-29T04:29:49;3.50;;;2.05;;
39032;SDS011;24794;51.982;5.878;2023-03-29T04:30:50;5.47;;;2.53;;
39032;SDS011;24794;51.982;5.878;2023-03-29T04:31:51;4.32;;;2.22;;
39032;SDS011;24794;51.982;5.878;2023-03-29T04:32:51;3.63;;;2.25;;
39032;SDS011;24794;51.982;5.878;2023-03-29T04:33:52;3.40;;;2.45;;
39032;SDS011;24794;51.982;5.878;2023-03-29T04:34:52;5.68;;;2.50;;
39032;SDS011;24794;51.982;5.878;2023-03-29T04:35:53;4.45;;;2.33;;
39032;SDS011;24794;51.982;5.878;2023-03-29T04:36:54;5.30;;;2.70;;
39032;SDS011;24794;51.982;5.878;2023-03-29T04:37:54;3.67;;;2.35;;
39032;SDS011;24794;51.982;5.878;2023-03-29T04:38:55;5.22;;;2.20;;
39032;SDS011;24794;51.982;5.878;2023-03-29T04:39:56;4.93;;;2.78;;
39032;SDS011;24794;51.982;5.878;2023-03-29T04:40:59;4.63;;;2.47;;
39032;SDS011;24794;51.982;5.878;2023-03-29T04:42:00;5.15;;;2.33;;
39032;SDS011;24794;51.982;5.878;2023-03-29T04:43:02;3.13;;;1.90;;
39032;SDS011;24794;51.982;5.878;2023-03-29T04:44:03;3.80;;;2.20;;
39032;SDS011;24794;51.982;5.878;2023-03-29T04:45:04;3.38;;;2.10;;
39032;SDS011;24794;51.982;5.878;2023-03-29T04:46:06;4.95;;;2.70;;
39032;SDS011;24794;51.982;5.878;2023-03-29T04:47:07;4.10;;;2.20;;
39032;SDS011;24794;51.982;5.878;2023-03-29T04:48:07;3.53;;;2.05;;
39032;SDS011;24794;51.982;5.878;2023-03-29T04:49:08;4.18;;;2.50;;
39032;SDS011;24794;51.982;5.878;2023-03-29T04:50:08;3.33;;;2.20;;
39032;SDS011;24794;51.982;5.878;2023-03-29T04:51:09;3.80;;;2.30;;
39032;SDS011;24794;51.982;5.878;2023-03-29T04:52:10;4.18;;;2.17;;
39032;SDS011;24794;51.982;5.878;2023-03-29T04:53:11;4.05;;;2.53;;
39032;SDS011;24794;51.982;5.878;2023-03-29T04:54:11;2.83;;;2.03;;
39032;SDS011;24794;51.982;5.878;2023-03-29T04:55:12;3.47;;;2.47;;
39032;SDS011;24794;51.982;5.878;2023-03-29T04:56:13;3.15;;;2.13;;
39032;SDS011;24794;51.982;5.878;2023-03-29T04:57:13;4.85;;;1.88;;
39032;SDS011;24794;51.982;5.878;2023-03-29T04:58:14;2.95;;;1.85;;
39032;SDS011;24794;51.982;5.878;2023-03-29T04:59:14;3.40;;;2.20;;
39032;SDS011;24794;51.982;5.878;2023-03-29T05:00:15;4.00;;;2.05;;
39032;SDS011;24794;51.982;5.878;2023-03-29T05:01:16;2.63;;;1.67;;
39032;SDS011;24794;51.982;5.878;2023-03-29T05:02:17;2.83;;;1.88;;
39032;SDS011;24794;51.982;5.878;2023-03-29T05:03:17;5.03;;;2.00;;
39032;SDS011;24794;51.982;5.878;2023-03-29T05:04:18;2.63;;;1.85;;
39032;SDS011;24794;51.982;5.878;2023-03-29T05:05:19;3.90;;;1.90;;
39032;SDS011;24794;51.982;5.878;2023-03-29T05:06:20;3.72;;;2.17;;
39032;SDS011;24794;51.982;5.878;2023-03-29T05:07:21;3.67;;;2.30;;
39032;SDS011;24794;51.982;5.878;2023-03-29T05:08:21;2.97;;;2.00;;
39032;SDS011;24794;51.982;5.878;2023-03-29T05:09:23;6.03;;;1.90;;
39032;SDS011;24794;51.982;5.878;2023-03-29T05:10:24;2.75;;;2.20;;
39032;SDS011;24794;51.982;5.878;2023-03-29T05:11:25;3.38;;;2.13;;
39032;SDS011;24794;51.982;5.878;2023-03-29T05:12:26;3.10;;;1.92;;
39032;SDS011;24794;51.982;5.878;2023-03-29T05:13:27;3.63;;;2.15;;
39032;SDS011;24794;51.982;5.878;2023-03-29T05:14:27;3.92;;;2.10;;
39032;SDS011;24794;51.982;5.878;2023-03-29T05:15:28;4.25;;;2.00;;
39032;SDS011;24794;51.982;5.878;2023-03-29T05:16:30;5.15;;;2.30;;
39032;SDS011;24794;51.982;5.878;2023-03-29T05:17:31;2.38;;;1.70;;
39032;SDS011;24794;51.982;5.878;2023-03-29T05:18:31;4.28;;;2.00;;
39032;SDS011;24794;51.982;5.878;2023-03-29T05:19:32;4.20;;;1.90;;
39032;SDS011;24794;51.982;5.878;2023-03-29T05:20:34;3.67;;;1.95;;
39032;SDS011;24794;51.982;5.878;2023-03-29T05:21:36;3.03;;;1.73;;
39032;SDS011;24794;51.982;5.878;2023-03-29T05:22:37;4.30;;;1.90;;
39032;SDS011;24794;51.982;5.878;2023-03-29T05:23:39;4.45;;;1.85;;
39032;SDS011;24794;51.982;5.878;2023-03-29T05:24:39;3.63;;;1.90;;
39032;SDS011;24794;51.982;5.878;2023-03-29T05:25:41;3.85;;;2.10;;
39032;SDS011;24794;51.982;5.878;2023-03-29T05:26:42;3.35;;;2.30;;
39032;SDS011;24794;51.982;5.878;2023-03-29T05:27:43;3.20;;;2.00;;
39032;SDS011;24794;51.982;5.878;2023-03-29T05:28:44;2.92;;;1.75;;
39032;SDS011;24794;51.982;5.878;2023-03-29T05:29:45;3.85;;;2.08;;
39032;SDS011;24794;51.982;5.878;2023-03-29T05:30:46;3.05;;;1.63;;
39032;SDS011;24794;51.982;5.878;2023-03-29T05:31:47;2.83;;;1.67;;
39032;SDS011;24794;51.982;5.878;2023-03-29T05:32:48;3.67;;;1.85;;
39032;SDS011;24794;51.982;5.878;2023-03-29T05:33:49;3.83;;;2.28;;
39032;SDS011;24794;51.982;5.878;2023-03-29T05:34:50;3.15;;;2.00;;
39032;SDS011;24794;51.982;5.878;2023-03-29T05:36:01;4.35;;;1.80;;
39032;SDS011;24794;51.982;5.878;2023-03-29T05:37:07;2.83;;;2.00;;
39032;SDS011;24794;51.982;5.878;2023-03-29T05:38:07;2.72;;;1.70;;
39032;SDS011;24794;51.982;5.878;2023-03-29T05:39:08;2.35;;;1.67;;
39032;SDS011;24794;51.982;5.878;2023-03-29T05:40:09;5.65;;;2.03;;
39032;SDS011;24794;51.982;5.878;2023-03-29T05:41:12;3.03;;;2.17;;
39032;SDS011;24794;51.982;5.878;2023-03-29T05:42:13;2.72;;;1.70;;
39032;SDS011;24794;51.982;5.878;2023-03-29T05:43:14;2.22;;;1.75;;
39032;SDS011;24794;51.982;5.878;2023-03-29T05:44:15;5.47;;;2.10;;
39032;SDS011;24794;51.982;5.878;2023-03-29T05:45:15;2.47;;;1.77;;
39032;SDS011;24794;51.982;5.878;2023-03-29T05:46:16;3.83;;;2.30;;
39032;SDS011;24794;51.982;5.878;2023-03-29T05:47:17;6.85;;;2.40;;
39032;SDS011;24794;51.982;5.878;2023-03-29T05:48:18;4.35;;;1.85;;
39032;SDS011;24794;51.982;5.878;2023-03-29T05:49:19;2.97;;;2.03;;
39032;SDS011;24794;51.982;5.878;2023-03-29T05:50:20;3.58;;;2.45;;
39032;SDS011;24794;51.982;5.878;2023-03-29T05:51:21;3.88;;;1.95;;
39032;SDS011;24794;51.982;5.878;2023-03-29T05:52:23;3.70;;;1.98;;
39032;SDS011;24794;51.982;5.878;2023-03-29T05:53:24;3.67;;;2.28;;
39032;SDS011;24794;51.982;5.878;2023-03-29T05:54:26;2.05;;;1.67;;
39032;SDS011;24794;51.982;5.878;2023-03-29T05:55:26;3.92;;;1.77;;
39032;SDS011;24794;51.982;5.878;2023-03-29T05:56:27;5.28;;;2.33;;
39032;SDS011;24794;51.982;5.878;2023-03-29T05:57:27;3.75;;;1.75;;
39032;SDS011;24794;51.982;5.878;2023-03-29T05:58:28;2.42;;;1.60;;
39032;SDS011;24794;51.982;5.878;2023-03-29T05:59:29;3.08;;;1.92;;
39032;SDS011;24794;51.982;5.878;2023-03-29T06:00:31;3.45;;;1.77;;
39032;SDS011;24794;51.982;5.878;2023-03-29T06:01:35;4.53;;;2.20;;
39032;SDS011;24794;51.982;5.878;2023-03-29T06:02:36;3.83;;;1.98;;
39032;SDS011;24794;51.982;5.878;2023-03-29T06:03:37;3.17;;;2.05;;
39032;SDS011;24794;51.982;5.878;2023-03-29T06:04:37;3.38;;;1.90;;
39032;SDS011;24794;51.982;5.878;2023-03-29T06:05:38;3.65;;;1.70;;
39032;SDS011;24794;51.982;5.878;2023-03-29T06:06:39;4.22;;;1.95;;
39032;SDS011;24794;51.982;5.878;2023-03-29T06:07:40;2.92;;;1.90;;
39032;SDS011;24794;51.982;5.878;2023-03-29T06:08:41;3.83;;;2.00;;
39032;SDS011;24794;51.982;5.878;2023-03-29T06:09:43;3.80;;;1.90;;
39032;SDS011;24794;51.982;5.878;2023-03-29T06:10:44;5.10;;;2.63;;
39032;SDS011;24794;51.982;5.878;2023-03-29T06:11:45;6.32;;;2.22;;
39032;SDS011;24794;51.982;5.878;2023-03-29T06:12:46;3.42;;;2.20;;
39032;SDS011;24794;51.982;5.878;2023-03-29T06:13:48;2.88;;;2.10;;
39032;SDS011;24794;51.982;5.878;2023-03-29T06:14:48;4.05;;;2.10;;
39032;SDS011;24794;51.982;5.878;2023-03-29T06:15:49;4.72;;;2.05;;
39032;SDS011;24794;51.982;5.878;2023-03-29T06:16:50;3.00;;;1.77;;
39032;SDS011;24794;51.982;5.878;2023-03-29T06:17:50;5.03;;;2.10;;
39032;SDS011;24794;51.982;5.878;2023-03-29T06:18:51;3.75;;;1.90;;
39032;SDS011;24794;51.982;5.878;2023-03-29T06:19:52;2.88;;;2.17;;
39032;SDS011;24794;51.982;5.878;2023-03-29T06:20:52;5.40;;;2.92;;
39032;SDS011;24794;51.982;5.878;2023-03-29T06:21:53;5.38;;;2.90;;
39032;SDS011;24794;51.982;5.878;2023-03-29T06:22:53;6.20;;;2.67;;
39032;SDS011;24794;51.982;5.878;2023-03-29T06:23:54;3.80;;;2.50;;
39032;SDS011;24794;51.982;5.878;2023-03-29T06:24:54;4.28;;;2.63;;
39032;SDS011;24794;51.982;5.878;2023-03-29T06:25:55;7.47;;;2.85;;
39032;SDS011;24794;51.982;5.878;2023-03-29T06:26:56;7.22;;;2.97;;
39032;SDS011;24794;51.982;5.878;2023-03-29T06:27:56;8.57;;;2.88;;
39032;SDS011;24794;51.982;5.878;2023-03-29T06:28:57;8.43;;;2.90;;